Search for airport 
image banner adimage banner adimage banner ad
image banner ad

90PA - Adams

Located in Coneville, United States

ICAO - 90PA, IATA -

Data provided by Airmate  

General information

Coordinates: N41°52'45" W78°6'54"
Elevation is 1780 feet MSL.
Magnetic variation is -10° East
View others Airports in Pennsylvania

Operational data

Special qualification required
Current time UTC:
Current local time:
METAR: KELZ 182356Z AUTO 34009KT 10SM CLR 21/06 A3033 RMK AO2 SLP267 T02060056 10239 20206 53001
View NOTAMs / SUP AIP / TFR affecting this airport [VIEW]
Communications frequencies: [VIEW]

Runways:

RWY identifierQFULength (ft)Width (ft)SurfaceLDA (ft)
042900100GRASS
222900100GRASS

Airport contact information

Address: Coneville United States

Satellite view of 90PA